Time;durP1;ratioP1;P1;durP2;ratioP2;P2;SDS_P1;SDS_P2;PMS_P1;PMS_P2;Temp;Humidity;BMP_temperature;BMP_pressure;BME280_temperature;BME280_humidity;BME280_pressure;Samples;Min_cycle;Max_cycle;Signal;HPM_P1;HPM_P2
2023/07/14 00:02:19;;;;;;;0.00;0.00;;;18.00;99.90;;;;;;7379760;19;20137;-67
2023/07/14 00:04:51;;;;;;;0.00;0.00;;;18.00;99.90;;;;;;7378533;19;20480;-66
2023/07/14 00:07:20;;;;;;;0.00;0.00;;;18.10;99.90;;;;;;7382678;19;20152;-66
2023/07/14 00:09:49;;;;;;;0.00;0.00;;;18.00;99.90;;;;;;7384650;19;20183;-66
2023/07/14 00:12:18;;;;;;;0.00;0.00;;;17.90;99.90;;;;;;7385328;19;20171;-66
2023/07/14 00:14:47;;;;;;;0.00;0.00;;;17.90;99.90;;;;;;7387856;19;20133;-66
2023/07/14 00:17:16;;;;;;;0.00;0.00;;;18.00;99.90;;;;;;7382906;19;20176;-65
2023/07/14 00:19:45;;;;;;;0.00;0.00;;;17.90;99.90;;;;;;7387120;19;20137;-64
2023/07/14 00:22:17;;;;;;;0.00;0.00;;;17.90;99.90;;;;;;7385047;19;20148;-66
2023/07/14 00:24:46;;;;;;;0.00;0.00;;;17.90;99.90;;;;;;7387791;19;20132;-65
2023/07/14 00:27:20;;;;;;;0.00;0.00;;;17.80;99.90;;;;;;7385493;19;20149;-66
2023/07/14 00:29:49;;;;;;;0.00;0.00;;;17.90;99.90;;;;;;7384273;19;20637;-66
2023/07/14 00:32:20;;;;;;;0.00;0.00;;;17.90;99.90;;;;;;7385849;19;20159;-66
2023/07/14 00:34:50;;;;;;;0.00;0.00;;;17.80;99.90;;;;;;7385263;19;20177;-67
2023/07/14 00:37:22;;;;;;;0.00;0.00;;;;;;;;;;7383561;19;20200;-66
2023/07/14 00:39:51;;;;;;;0.00;0.00;;;;;;;;;;7380059;19;20133;-66
2023/07/14 00:42:20;;;;;;;0.00;0.00;;;;;;;;;;7384796;19;20153;-66
2023/07/14 00:44:50;;;;;;;0.10;0.10;;;;;;;;;;7383412;19;20160;-66
2023/07/14 00:47:22;;;;;;;0.10;0.10;;;;;;;;;;7384602;19;20614;-66
2023/07/14 00:49:53;;;;;;;0.00;0.00;;;;;;;;;;7381591;19;20149;-66
2023/07/14 00:52:28;;;;;;;0.10;0.10;;;;;;;;;;7383551;19;20180;-67
2023/07/14 00:54:57;;;;;;;0.00;0.00;;;;;;;;;;7383385;19;20152;-67
2023/07/14 00:57:28;;;;;;;0.00;0.00;;;;;;;;;;7383664;19;20216;-66
2023/07/14 01:00:01;;;;;;;0.00;0.00;;;;;;;;;;7384538;19;20136;-66
2023/07/14 01:02:30;;;;;;;0.00;0.00;;;;;;;;;;7385409;19;20144;-66
2023/07/14 01:05:00;;;;;;;0.00;0.00;;;;;;;;;;7383455;19;20145;-66
2023/07/14 01:07:33;;;;;;;0.00;0.00;;;;;;;;;;7380775;19;20190;-69
2023/07/14 01:10:03;;;;;;;0.00;0.00;;;;;;;;;;7381955;19;20156;-69
2023/07/14 01:12:35;;;;;;;0.03;0.03;;;;;;;;;;7384515;19;20152;-69
2023/07/14 01:15:04;;;;;;;0.00;0.00;;;;;;;;;;7384101;19;20136;-70
2023/07/14 01:17:33;;;;;;;0.00;0.00;;;;;;;;;;7380715;19;20180;-68
2023/07/14 01:20:03;;;;;;;0.10;0.10;;;;;;;;;;7385150;19;20137;-66
2023/07/14 01:22:42;;;;;;;0.10;0.10;;;;;;;;;;7383930;19;20177;-66
2023/07/14 01:25:16;;;;;;;0.00;0.00;;;;;;;;;;7382232;19;20151;-65
2023/07/14 01:27:49;;;;;;;0.00;0.00;;;;;;;;;;7381053;19;20172;-66
2023/07/14 01:30:18;;;;;;;0.00;0.00;;;;;;;;;;7385175;19;20141;-66
2023/07/14 01:32:49;;;;;;;0.00;0.00;;;;;;;;;;7382496;19;20160;-66
2023/07/14 01:35:20;;;;;;;0.00;0.00;;;17.30;99.90;;;;;;7385077;19;20133;-66
2023/07/14 01:37:49;;;;;;;0.00;0.00;;;17.30;99.90;;;;;;7381344;19;20153;-66
2023/07/14 01:40:20;;;;;;;0.00;0.00;;;;;;;;;;7384565;19;20125;-67
2023/07/14 01:42:57;;;;;;;0.00;0.00;;;17.20;99.90;;;;;;7382620;19;20164;-67
2023/07/14 01:45:30;;;;;;;0.00;0.00;;;17.10;99.90;;;;;;7384714;19;20140;-67
2023/07/14 01:48:02;;;;;;;0.00;0.00;;;17.20;99.90;;;;;;7376456;19;20253;-65
2023/07/14 01:50:36;;;;;;;0.00;0.00;;;17.20;99.90;;;;;;7382582;19;20164;-66
2023/07/14 01:53:08;;;;;;;0.00;0.00;;;17.00;99.90;;;;;;7380734;19;20133;-66
2023/07/14 01:55:38;;;;;;;0.00;0.00;;;;;;;;;;7382260;19;20157;-66
2023/07/14 01:58:12;;;;;;;0.00;0.00;;;;;;;;;;7376488;19;20180;-66
2023/07/14 02:00:43;;;;;;;0.00;0.00;;;;;;;;;;7382686;19;20190;-66
2023/07/14 02:03:17;;;;;;;0.00;0.00;;;;;;;;;;7382210;19;20171;-65
2023/07/14 02:05:46;;;;;;;0.00;0.00;;;;;;;;;;7382469;19;20156;-67
2023/07/14 02:08:17;;;;;;;0.00;0.00;;;;;;;;;;7378671;19;20215;-66
2023/07/14 02:10:46;;;;;;;0.07;0.07;;;;;;;;;;7382831;19;20169;-66
2023/07/14 02:13:18;;;;;;;0.00;0.00;;;;;;;;;;7383842;19;20151;-65
2023/07/14 02:15:47;;;;;;;0.10;0.10;;;;;;;;;;7382642;19;20152;-65
2023/07/14 02:18:18;;;;;;;0.00;0.00;;;;;;;;;;7379950;19;20160;-66
2023/07/14 02:20:48;;;;;;;0.00;0.00;;;16.80;99.90;;;;;;7382162;19;20153;-66
2023/07/14 02:23:22;;;;;;;0.00;0.00;;;16.60;99.90;;;;;;7382748;19;20133;-66
2023/07/14 02:26:06;;;;;;;0.00;0.00;;;16.60;99.90;;;;;;7382134;19;20192;-66
2023/07/14 02:28:37;;;;;;;0.00;0.00;;;16.60;99.90;;;;;;7376906;19;20186;-65
2023/07/14 02:31:15;;;;;;;0.00;0.00;;;16.60;99.90;;;;;;7381420;19;20136;-66
2023/07/14 02:33:45;;;;;;;0.00;0.00;;;;;;;;;;7380409;19;20153;-67
2023/07/14 02:36:20;;;;;;;0.00;0.00;;;;;;;;;;7380127;19;20149;-67
2023/07/14 02:38:49;;;;;;;0.00;0.00;;;;;;;;;;7378287;19;20195;-66
2023/07/14 02:41:22;;;;;;;0.00;0.00;;;16.60;99.90;;;;;;7381703;19;20212;-65
2023/07/14 02:43:56;;;;;;;0.00;0.00;;;16.40;99.90;;;;;;7380449;19;20164;-64
2023/07/14 02:46:31;;;;;;;0.00;0.00;;;16.40;99.90;;;;;;7383340;19;20204;-67
2023/07/14 02:48:59;;;;;;;0.00;0.00;;;16.40;99.90;;;;;;7377882;19;20158;-65
2023/07/14 02:51:28;;;;;;;0.00;0.00;;;16.30;99.90;;;;;;7380176;19;20148;-66
2023/07/14 02:53:57;;;;;;;0.00;0.00;;;16.30;99.90;;;;;;7378988;19;20133;-65
2023/07/14 02:56:26;;;;;;;0.00;0.00;;;16.20;99.90;;;;;;7379389;19;20164;-66
2023/07/14 02:58:57;;;;;;;0.00;0.00;;;16.30;99.90;;;;;;7379781;19;20160;-66
2023/07/14 03:01:28;;;;;;;0.00;0.00;;;16.10;99.90;;;;;;7380153;19;20153;-66
2023/07/14 03:03:57;;;;;;;0.07;0.07;;;16.30;99.90;;;;;;7381719;19;20143;-67
2023/07/14 03:06:26;;;;;;;0.00;0.00;;;;;;;;;;7382062;19;20140;-66
2023/07/14 03:08:55;;;;;;;0.00;0.00;;;;;;;;;;7377841;19;20149;-64
2023/07/14 03:11:24;;;;;;;0.00;0.00;;;;;;;;;;7381640;19;20425;-64
2023/07/14 03:13:54;;;;;;;0.00;0.00;;;16.50;99.90;;;;;;7380643;19;20137;-66
2023/07/14 03:16:25;;;;;;;0.00;0.00;;;16.20;99.90;;;;;;7379300;19;20156;-65
2023/07/14 03:18:55;;;;;;;0.07;0.07;;;16.20;99.90;;;;;;7375772;19;20239;-66
2023/07/14 03:21:24;;;;;;;0.00;0.00;;;16.20;99.90;;;;;;7380415;19;20228;-66
2023/07/14 03:23:53;;;;;;;0.00;0.00;;;16.10;99.90;;;;;;7379189;19;20145;-66
2023/07/14 03:26:22;;;;;;;0.00;0.00;;;16.10;99.90;;;;;;7377805;19;20684;-66
2023/07/14 03:28:51;;;;;;;0.03;0.03;;;16.10;99.90;;;;;;7377519;19;20148;-66
2023/07/14 03:31:19;;;;;;;0.00;0.00;;;16.00;99.90;;;;;;7378909;19;20165;-64
2023/07/14 03:33:51;;;;;;;0.00;0.00;;;16.10;99.90;;;;;;7378098;19;20171;-64
2023/07/14 03:36:21;;;;;;;0.00;0.00;;;16.10;99.90;;;;;;7379104;19;20156;-66
2023/07/14 03:39:10;;;;;;;0.00;0.00;;;16.10;99.90;;;;;;7376894;19;20200;-66
2023/07/14 03:41:38;;;;;;;0.10;0.10;;;16.10;99.90;;;;;;7376481;19;20152;-65
2023/07/14 03:44:07;;;;;;;0.00;0.00;;;16.10;99.90;;;;;;7380285;19;20152;-66
2023/07/14 03:46:36;;;;;;;0.00;0.00;;;16.20;99.90;;;;;;7379244;19;20153;-66
2023/07/14 03:49:07;;;;;;;0.10;0.10;;;16.20;99.90;;;;;;7374264;19;20199;-65
2023/07/14 03:51:36;;;;;;;0.00;0.00;;;16.20;99.90;;;;;;7378700;19;20149;-65
2023/07/14 03:54:05;;;;;;;0.00;0.00;;;16.20;99.90;;;;;;7377186;19;20164;-68
2023/07/14 03:56:34;;;;;;;0.00;0.00;;;16.30;99.90;;;;;;7380719;19;20159;-68
2023/07/14 03:59:03;;;;;;;0.00;0.00;;;16.40;99.90;;;;;;7375579;19;20191;-70
2023/07/14 04:01:32;;;;;;;0.00;0.00;;;16.40;99.90;;;;;;7378927;19;20153;-69
2023/07/14 04:04:01;;;;;;;0.00;0.00;;;16.40;99.90;;;;;;7376647;19;20780;-69
2023/07/14 04:06:36;;;;;;;0.10;0.10;;;16.50;99.90;;;;;;7378933;19;20180;-70
2023/07/14 04:09:06;;;;;;;0.00;0.00;;;16.50;99.90;;;;;;7375966;19;20251;-68
2023/07/14 04:11:36;;;;;;;0.00;0.00;;;16.60;99.90;;;;;;7378349;19;20160;-70
2023/07/14 04:14:05;;;;;;;0.00;0.00;;;16.60;99.90;;;;;;7378004;19;20141;-69
2023/07/14 04:16:35;;;;;;;0.10;0.10;;;16.70;99.90;;;;;;7378514;19;20175;-69
2023/07/14 04:19:05;;;;;;;0.10;0.10;;;16.70;99.90;;;;;;7376128;19;20141;-68
2023/07/14 04:21:36;;;;;;;0.10;0.10;;;16.80;99.90;;;;;;7377938;19;20176;-69
2023/07/14 04:24:05;;;;;;;0.03;0.03;;;16.90;99.90;;;;;;7378694;19;20569;-69
2023/07/14 04:26:34;;;;;;;0.10;0.10;;;16.90;99.90;;;;;;7377850;19;20168;-66
2023/07/14 04:29:05;;;;;;;0.00;0.00;;;17.00;99.90;;;;;;7375289;19;20245;-66
2023/07/14 04:31:33;;;;;;;0.10;0.10;;;17.10;99.90;;;;;;7377630;19;20165;-66
2023/07/14 04:34:02;;;;;;;0.00;0.00;;;17.20;99.90;;;;;;7374818;19;20518;-66
2023/07/14 04:36:31;;;;;;;0.00;0.00;;;17.30;99.90;;;;;;7378480;19;20153;-66
2023/07/14 04:39:08;;;;;;;0.00;0.00;;;17.30;99.90;;;;;;7374681;19;20149;-65
2023/07/14 04:41:38;;;;;;;0.00;0.00;;;17.40;99.90;;;;;;7378726;19;20135;-66
2023/07/14 04:44:13;;;;;;;0.00;0.00;;;17.50;99.90;;;;;;7377846;19;20140;-66
2023/07/14 04:46:45;;;;;;;0.00;0.00;;;17.50;99.90;;;;;;7379219;19;20153;-66
2023/07/14 04:49:15;;;;;;;0.00;0.00;;;17.60;99.90;;;;;;7377920;19;20169;-67
2023/07/14 04:51:44;;;;;;;0.10;0.10;;;17.60;99.90;;;;;;7379093;19;20141;-66
2023/07/14 04:54:15;;;;;;;0.03;0.03;;;17.70;99.90;;;;;;7383258;19;20188;-67
2023/07/14 04:56:45;;;;;;;0.00;0.00;;;17.70;99.90;;;;;;7384193;19;20156;-67
2023/07/14 04:59:14;;;;;;;0.00;0.00;;;17.80;99.90;;;;;;7382911;19;20622;-66
2023/07/14 05:01:43;;;;;;;0.00;0.00;;;17.90;99.90;;;;;;7387866;19;20137;-65
2023/07/14 05:04:11;;;;;;;0.10;0.10;;;17.90;99.90;;;;;;7383326;19;20152;-63
2023/07/14 05:06:41;;;;;;;0.07;0.07;;;18.00;99.90;;;;;;7383950;19;20167;-66
2023/07/14 05:09:10;;;;;;;0.10;0.10;;;18.10;99.90;;;;;;7384080;19;20141;-66
2023/07/14 05:11:41;;;;;;;0.00;0.00;;;18.30;99.90;;;;;;7383659;19;20180;-66
2023/07/14 05:14:10;;;;;;;0.00;0.00;;;18.40;99.90;;;;;;7381806;19;20148;-65
2023/07/14 05:16:39;;;;;;;0.00;0.00;;;18.40;99.90;;;;;;7383950;19;20176;-67
2023/07/14 05:19:08;;;;;;;0.00;0.00;;;18.50;99.90;;;;;;7380184;19;20180;-66
2023/07/14 05:21:36;;;;;;;0.03;0.03;;;18.60;99.90;;;;;;7385161;19;20144;-65
2023/07/14 05:24:06;;;;;;;0.00;0.00;;;18.60;99.90;;;;;;7385354;19;20137;-66
2023/07/14 05:26:35;;;;;;;0.00;0.00;;;18.70;99.90;;;;;;7382827;19;20159;-64
2023/07/14 05:29:08;;;;;;;0.00;0.00;;;18.80;99.90;;;;;;7378614;19;20176;-68
2023/07/14 05:31:37;;;;;;;0.00;0.00;;;19.00;99.90;;;;;;7382950;19;20164;-71
2023/07/14 05:34:06;;;;;;;0.00;0.00;;;19.10;99.90;;;;;;7383197;19;20169;-69
2023/07/14 05:36:37;;;;;;;0.00;0.00;;;19.30;99.90;;;;;;7383906;19;20159;-69
2023/07/14 05:39:06;;;;;;;0.00;0.00;;;19.40;99.90;;;;;;7378402;19;20185;-69
2023/07/14 05:41:35;;;;;;;0.00;0.00;;;19.60;99.90;;;;;;7382331;19;20188;-67
2023/07/14 05:44:08;;;;;;;0.00;0.00;;;19.80;99.90;;;;;;7383305;19;20148;-69
2023/07/14 05:46:37;;;;;;;0.00;0.00;;;20.00;99.90;;;;;;7384980;19;20133;-68
2023/07/14 05:49:06;;;;;;;0.00;0.00;;;20.10;99.90;;;;;;7381724;19;20152;-69
2023/07/14 05:51:35;;;;;;;0.00;0.00;;;20.30;99.90;;;;;;7383405;19;20149;-69
2023/07/14 05:54:04;;;;;;;0.00;0.00;;;20.40;99.90;;;;;;7382060;19;20172;-68
2023/07/14 05:56:33;;;;;;;0.00;0.00;;;;;;;;;;7383077;19;20152;-69
2023/07/14 05:59:02;;;;;;;0.00;0.00;;;21.10;99.90;;;;;;7380288;19;20690;-68
2023/07/14 06:01:34;;;;;;;0.00;0.00;;;;;;;;;;7383741;19;20137;-68
2023/07/14 06:04:05;;;;;;;0.00;0.00;;;;;;;;;;7378862;19;20161;-68
2023/07/14 06:06:34;;;;;;;0.00;0.00;;;;;;;;;;7382721;19;20200;-67
2023/07/14 06:09:03;;;;;;;0.00;0.00;;;21.30;99.90;;;;;;7376789;19;20191;-67
2023/07/14 06:11:32;;;;;;;0.00;0.00;;;21.40;99.90;;;;;;7383062;19;20226;-68
2023/07/14 06:14:01;;;;;;;0.00;0.00;;;21.40;99.90;;;;;;7381926;19;20137;-68
2023/07/14 06:16:30;;;;;;;0.00;0.00;;;;;;;;;;7384877;19;20474;-69
2023/07/14 06:19:02;;;;;;;0.00;0.00;;;21.60;99.90;;;;;;7379922;19;20152;-67
2023/07/14 06:21:31;;;;;;;0.00;0.00;;;;;;;;;;7383929;19;20137;-66
2023/07/14 06:24:00;;;;;;;0.00;0.00;;;21.80;99.90;;;;;;7383335;19;20140;-68
2023/07/14 06:26:28;;;;;;;0.00;0.00;;;22.00;99.90;;;;;;7385032;19;20164;-68
2023/07/14 06:28:57;;;;;;;0.00;0.00;;;22.10;99.90;;;;;;7374860;19;20172;-68
2023/07/14 06:31:26;;;;;;;0.00;0.00;;;;;;;;;;7377292;19;20243;-68
2023/07/14 06:33:55;;;;;;;0.00;0.00;;;;;;;;;;7384351;19;20140;-69
2023/07/14 06:36:27;;;;;;;0.00;0.00;;;;;;;;;;7383093;19;20144;-68
2023/07/14 06:38:56;;;;;;;0.00;0.00;;;;;;;;;;7378997;19;20191;-70
2023/07/14 06:41:25;;;;;;;0.00;0.00;;;22.90;99.90;;;;;;7382386;19;20148;-71
2023/07/14 06:43:54;;;;;;;0.00;0.00;;;23.00;99.90;;;;;;7384659;19;20145;-70
2023/07/14 06:46:23;;;;;;;0.00;0.00;;;23.20;99.90;;;;;;7382054;19;20137;-70
2023/07/14 06:48:51;;;;;;;0.00;0.00;;;23.40;99.90;;;;;;7380755;19;20204;-68
2023/07/14 06:51:20;;;;;;;0.00;0.00;;;23.50;99.90;;;;;;7382574;19;20137;-68
2023/07/14 06:53:52;;;;;;;0.00;0.00;;;23.60;99.90;;;;;;7383431;19;20200;-69
2023/07/14 06:56:21;;;;;;;0.00;0.00;;;23.70;99.90;;;;;;7380037;19;20125;-68
2023/07/14 06:58:50;;;;;;;0.00;0.00;;;23.80;99.90;;;;;;7379566;19;20184;-68
2023/07/14 07:01:19;;;;;;;0.00;0.00;;;24.10;99.90;;;;;;7381470;19;20219;-69
2023/07/14 07:03:48;;;;;;;0.00;0.00;;;;;;;;;;7381217;19;20160;-69
2023/07/14 07:06:18;;;;;;;0.00;0.00;;;;;;;;;;7378537;19;20164;-69
2023/07/14 07:08:47;;;;;;;0.00;0.00;;;;;;;;;;7382657;19;20188;-69
2023/07/14 07:11:19;;;;;;;0.00;0.00;;;;;;;;;;7379254;19;20581;-69
2023/07/14 07:13:48;;;;;;;0.00;0.00;;;;;;;;;;7383877;19;20192;-68
2023/07/14 07:16:18;;;;;;;0.00;0.00;;;;;;;;;;7377419;19;20153;-69
2023/07/14 07:18:47;;;;;;;0.00;0.00;;;;;;;;;;7379169;19;20157;-70
2023/07/14 07:21:16;;;;;;;0.00;0.00;;;;;;;;;;7379240;19;20167;-69
2023/07/14 07:23:45;;;;;;;0.00;0.00;;;;;;;;;;7382949;19;20499;-69
2023/07/14 07:26:14;;;;;;;0.00;0.00;;;25.40;99.90;;;;;;7380205;19;20159;-67
2023/07/14 07:28:46;;;;;;;0.00;0.00;;;25.60;99.90;;;;;;7378732;19;20184;-69
2023/07/14 07:31:15;;;;;;;0.00;0.00;;;25.60;99.90;;;;;;7380077;19;20184;-68
2023/07/14 07:33:44;;;;;;;0.00;0.00;;;25.60;99.90;;;;;;7380835;19;20137;-68
2023/07/14 07:36:19;;;;;;;0.00;0.00;;;25.50;99.90;;;;;;7377049;19;20231;-68
2023/07/14 07:38:50;;;;;;;0.00;0.00;;;25.60;99.90;;;;;;7378479;19;20757;-69
2023/07/14 07:41:21;;;;;;;0.00;0.00;;;25.70;99.90;;;;;;7378810;19;20238;-68
2023/07/14 07:43:53;;;;;;;0.00;0.00;;;25.80;99.90;;;;;;7380019;19;20164;-69
2023/07/14 07:46:23;;;;;;;0.00;0.00;;;25.80;99.90;;;;;;7378764;19;20156;-66
2023/07/14 07:48:52;;;;;;;0.00;0.00;;;25.90;99.90;;;;;;7378133;19;20276;-70
2023/07/14 07:51:21;;;;;;;0.00;0.00;;;25.90;99.90;;;;;;7377379;19;20148;-71
2023/07/14 07:53:50;;;;;;;0.00;0.00;;;25.90;99.90;;;;;;7381234;19;20137;-70
2023/07/14 07:56:18;;;;;;;0.00;0.00;;;25.90;99.90;;;;;;7375268;19;20172;-74
2023/07/14 07:58:47;;;;;;;0.00;0.00;;;25.90;99.90;;;;;;7378198;19;20210;-74
2023/07/14 08:01:22;;;;;;;0.00;0.00;;;25.80;99.90;;;;;;7380981;19;20141;-74
2023/07/14 08:03:54;;;;;;;0.00;0.00;;;25.80;99.90;;;;;;7381530;19;20188;-73
2023/07/14 08:06:25;;;;;;;0.00;0.00;;;25.80;99.90;;;;;;7380531;19;20140;-73
2023/07/14 08:08:54;;;;;;;0.00;0.00;;;;;;;;;;7381431;19;20193;-72
2023/07/14 08:11:23;;;;;;;0.00;0.00;;;26.00;99.90;;;;;;7385105;19;20141;-72
2023/07/14 08:13:52;;;;;;;0.00;0.00;;;;;;;;;;7384041;19;20220;-73
2023/07/14 08:16:24;;;;;;;0.00;0.00;;;26.00;99.90;;;;;;7383020;19;20145;-73
2023/07/14 08:18:53;;;;;;;0.00;0.00;;;26.10;99.90;;;;;;7379766;19;20204;-73
2023/07/14 08:21:22;;;;;;;0.00;0.00;;;;;;;;;;7383697;19;20125;-75
2023/07/14 08:23:51;;;;;;;0.00;0.00;;;26.30;99.90;;;;;;7384789;19;20152;-74
2023/07/14 08:26:19;;;;;;;0.00;0.00;;;26.30;99.90;;;;;;7384758;19;20246;-73
2023/07/14 08:28:48;;;;;;;0.00;0.00;;;26.40;99.90;;;;;;7386061;19;20183;-75
2023/07/14 08:31:18;;;;;;;0.00;0.00;;;26.40;99.90;;;;;;7388208;19;20144;-75
2023/07/14 08:33:51;;;;;;;0.00;0.00;;;;;;;;;;7390086;19;20133;-75
2023/07/14 08:36:20;;;;;;;0.00;0.00;;;;;;;;;;7385899;19;20787;-75
2023/07/14 08:38:49;;;;;;;0.00;0.00;;;;;;;;;;7385147;19;20196;-75
2023/07/14 08:41:26;;;;;;;0.00;0.00;;;26.70;99.90;;;;;;7387310;19;20161;-75
2023/07/14 08:44:20;;;;;;;0.00;0.00;;;;;;;;;;7390323;19;20147;-75
2023/07/14 08:46:55;;;;;;;0.00;0.00;;;26.90;99.90;;;;;;7386061;19;20147;-74
2023/07/14 08:49:29;;;;;;;0.00;0.00;;;;;;;;;;7385909;19;20163;-75
2023/07/14 08:51:59;;;;;;;0.00;0.00;;;;;;;;;;7388872;19;20129;-75
2023/07/14 08:54:32;;;;;;;0.00;0.00;;;27.10;99.90;;;;;;7387319;19;20179;-75
2023/07/14 08:57:01;;;;;;;0.00;0.00;;;;;;;;;;7386700;19;20145;-75
2023/07/14 08:59:36;;;;;;;0.00;0.00;;;27.50;99.90;;;;;;7386337;19;20153;-75
2023/07/14 09:02:13;;;;;;;0.00;0.00;;;;;;;;;;7377753;19;20171;-75
2023/07/14 09:04:45;;;;;;;0.00;0.00;;;;;;;;;;7386534;19;20152;-75
2023/07/14 09:07:16;;;;;;;0.00;0.00;;;;;;;;;;7381002;19;20157;-76
2023/07/14 09:09:45;;;;;;;0.00;0.00;;;;;;;;;;7382863;19;20173;-75
2023/07/14 09:12:19;;;;;;;0.00;0.00;;;;;;;;;;7382512;19;20163;-75
2023/07/14 09:14:55;;;;;;;0.00;0.00;;;;;;;;;;7387002;19;20144;-75
2023/07/14 09:17:27;;;;;;;0.00;0.00;;;;;;;;;;7382266;19;20168;-75
2023/07/14 09:20:09;;;;;;;0.00;0.00;;;;;;;;;;7387113;19;20133;-77
2023/07/14 09:22:42;;;;;;;0.00;0.00;;;;;;;;;;7386482;19;20188;-75
2023/07/14 09:25:15;;;;;;;0.00;0.00;;;;;;;;;;7386375;19;20140;-75
2023/07/14 09:27:44;;;;;;;0.00;0.00;;;;;;;;;;7384056;19;20183;-75
2023/07/14 09:30:17;;;;;;;0.00;0.00;;;;;;;;;;7386091;19;20141;-75
2023/07/14 09:32:51;;;;;;;0.00;0.00;;;;;;;;;;7388334;19;20145;-75
2023/07/14 09:35:24;;;;;;;0.00;0.00;;;;;;;;;;7387286;19;20620;-74
2023/07/14 09:37:59;;;;;;;0.00;0.00;;;28.10;99.90;;;;;;7384180;19;20213;-74
2023/07/14 09:40:32;;;;;;;0.00;0.00;;;27.90;99.90;;;;;;7385680;19;20167;-74
2023/07/14 09:43:02;;;;;;;0.00;0.00;;;27.90;99.90;;;;;;7387392;19;20154;-75
2023/07/14 09:45:33;;;;;;;0.00;0.00;;;28.00;99.90;;;;;;7387335;19;20160;-75
2023/07/14 09:48:05;;;;;;;0.00;0.00;;;28.20;99.90;;;;;;7382630;19;20188;-74
2023/07/14 09:51:07;;;;;;;0.00;0.00;;;28.30;99.90;;;;;;7389362;19;20232;-74
2023/07/14 09:54:01;;;;;;;0.00;0.00;;;28.30;99.90;;;;;;7395070;19;20160;-74
2023/07/14 09:56:51;;;;;;;0.00;0.00;;;28.20;99.90;;;;;;7393637;19;20152;-73
2023/07/14 09:59:31;;;;;;;0.00;0.00;;;28.10;99.90;;;;;;7395968;19;20156;-76
2023/07/14 10:02:02;;;;;;;0.00;0.00;;;28.10;99.90;;;;;;7385468;19;20162;-76
2023/07/14 10:04:36;;;;;;;0.00;0.00;;;28.10;99.90;;;;;;7384039;19;20157;-75
2023/07/14 10:07:45;;;;;;;0.00;0.00;;;28.20;99.90;;;;;;7382629;19;20208;-77
2023/07/14 10:10:15;;;;;;;0.00;0.00;;;28.20;99.90;;;;;;7386171;19;20149;-74
2023/07/14 10:12:49;;;;;;;0.00;0.00;;;28.20;99.90;;;;;;7386277;19;20152;-73
2023/07/14 10:15:30;;;;;;;0.00;0.00;;;;;;;;;;7387129;19;20140;-72
2023/07/14 10:18:00;;;;;;;0.00;0.00;;;;;;;;;;7386613;19;20174;-73
2023/07/14 10:20:31;;;;;;;0.00;0.00;;;;;;;;;;7386788;19;20164;-73
2023/07/14 10:23:05;;;;;;;0.00;0.00;;;;;;;;;;7389661;19;20171;-73
2023/07/14 10:25:34;;;;;;;0.00;0.00;;;;;;;;;;7388139;19;20133;-72
2023/07/14 10:28:06;;;;;;;0.00;0.00;;;;;;;;;;7383957;19;20201;-72
2023/07/14 10:30:44;;;;;;;0.00;0.00;;;;;;;;;;7385434;19;20169;-74
2023/07/14 10:33:17;;;;;;;0.00;0.00;;;;;;;;;;7385657;19;20523;-73
2023/07/14 10:35:48;;;;;;;0.00;0.00;;;;;;;;;;7384941;19;20153;-73
2023/07/14 10:38:23;;;;;;;0.00;0.00;;;;;;;;;;7382033;19;20153;-76
2023/07/14 10:40:56;;;;;;;0.00;0.00;;;;;;;;;;7382204;19;20156;-78
2023/07/14 10:43:27;;;;;;;0.00;0.00;;;;;;;;;;7382983;19;20171;-78
2023/07/14 10:45:58;;;;;;;0.00;0.00;;;;;;;;;;7382535;19;20159;-76
2023/07/14 10:51:36;;;;;;;0.00;0.00;;;;;;;;;;7386185;19;20148;-72
2023/07/14 10:54:09;;;;;;;0.00;0.00;;;;;;;;;;7388654;19;20156;-72
2023/07/14 10:56:42;;;;;;;0.00;0.00;;;;;;;;;;7389469;19;20209;-70
2023/07/14 10:59:15;;;;;;;0.00;0.00;;;;;;;;;;7379412;19;20153;-71
2023/07/14 11:01:53;;;;;;;0.00;0.00;;;;;;;;;;7382952;19;20163;-74
2023/07/14 11:04:28;;;;;;;0.00;0.00;;;;;;;;;;7384753;19;20137;-71
2023/07/14 11:07:00;;;;;;;0.00;0.00;;;;;;;;;;7382297;19;20140;-70
2023/07/14 11:09:31;;;;;;;0.00;0.00;;;;;;;;;;7380464;19;20136;-71
2023/07/14 11:12:05;;;;;;;0.00;0.00;;;;;;;;;;7381770;19;20172;-72
2023/07/14 11:14:40;;;;;;;0.00;0.00;;;;;;;;;;7380795;19;20229;-72
2023/07/14 11:17:12;;;;;;;0.00;0.00;;;;;;;;;;7379981;19;20223;-72
2023/07/14 11:19:47;;;;;;;0.00;0.00;;;;;;;;;;7384712;19;20140;-73
2023/07/14 11:22:21;;;;;;;0.00;0.00;;;;;;;;;;7381541;19;20207;-72
2023/07/14 11:24:59;;;;;;;0.00;0.00;;;;;;;;;;7381204;19;20137;-72
2023/07/14 11:27:33;;;;;;;0.00;0.00;;;;;;;;;;7378211;19;20180;-72
2023/07/14 11:30:03;;;;;;;0.00;0.00;;;;;;;;;;7375235;19;20171;-72
2023/07/14 11:32:38;;;;;;;0.00;0.00;;;;;;;;;;7381260;19;20136;-73
2023/07/14 11:35:13;;;;;;;0.00;0.00;;;;;;;;;;7381167;19;20132;-73
2023/07/14 11:37:47;;;;;;;0.00;0.00;;;;;;;;;;7377404;19;20180;-72
2023/07/14 11:43:22;;;;;;;0.00;0.00;;;;;;;;;;7380036;19;20148;-75
2023/07/14 11:45:56;;;;;;;0.00;0.00;;;;;;;;;;7379955;19;20149;-75
2023/07/14 11:48:28;;;;;;;0.00;0.00;;;28.70;99.90;;;;;;7376473;19;20166;-76
2023/07/14 11:51:10;;;;;;;0.00;0.00;;;28.90;99.90;;;;;;7379901;19;20752;-74
2023/07/14 11:53:43;;;;;;;0.00;0.00;;;28.90;99.90;;;;;;7380816;19;20140;-76
2023/07/14 11:56:24;;;;;;;0.00;0.00;;;28.90;99.90;;;;;;7378284;19;20154;-74
2023/07/14 11:59:08;;;;;;;0.00;0.00;;;28.80;99.90;;;;;;7377962;19;20184;-74
2023/07/14 12:01:46;;;;;;;0.00;0.00;;;;;;;;;;7380135;19;20153;-74
2023/07/14 12:04:34;;;;;;;0.00;0.00;;;28.90;99.90;;;;;;7386163;19;20145;-75
2023/07/14 12:07:19;;;;;;;0.00;0.00;;;28.90;99.90;;;;;;7386759;19;20156;-74
2023/07/14 12:10:05;;;;;;;0.00;0.00;;;29.00;99.90;;;;;;7386516;19;20188;-75
2023/07/14 12:12:35;;;;;;;0.00;0.00;;;28.90;99.90;;;;;;7387691;19;20139;-75
2023/07/14 12:15:37;;;;;;;0.00;0.00;;;;;;;;;;7386328;19;20149;-74
2023/07/14 12:18:22;;;;;;;0.00;0.00;;;;;;;;;;7381845;19;20179;-74
2023/07/14 12:20:54;;;;;;;0.00;0.00;;;;;;;;;;7384402;19;20212;-75
2023/07/14 12:23:28;;;;;;;0.00;0.00;;;;;;;;;;7387633;19;20137;-76
2023/07/14 12:26:02;;;;;;;0.00;0.00;;;;;;;;;;7386186;19;20144;-75
2023/07/14 12:28:33;;;;;;;0.00;0.00;;;;;;;;;;7381931;19;20206;-76
2023/07/14 12:31:04;;;;;;;0.00;0.00;;;;;;;;;;7387120;19;20129;-76
2023/07/14 12:33:33;;;;;;;0.00;0.00;;;;;;;;;;7386213;19;20133;-75
2023/07/14 12:36:07;;;;;;;0.00;0.00;;;29.00;99.90;;;;;;7384784;19;20173;-76
2023/07/14 12:39:13;;;;;;;0.00;0.00;;;28.70;99.90;;;;;;7393782;19;20180;-76
2023/07/14 12:41:59;;;;;;;0.00;0.00;;;28.50;99.90;;;;;;7391188;19;20145;-76
2023/07/14 12:44:35;;;;;;;0.00;0.00;;;28.40;99.90;;;;;;7384973;19;20147;-76
2023/07/14 12:47:04;;;;;;;0.00;0.00;;;28.30;99.90;;;;;;7383473;19;20161;-75
2023/07/14 12:49:37;;;;;;;0.00;0.00;;;28.20;99.90;;;;;;7384271;19;20141;-76
2023/07/14 12:52:13;;;;;;;0.00;0.00;;;28.30;99.90;;;;;;7385616;19;20153;-76
2023/07/14 12:54:45;;;;;;;0.00;0.00;;;28.40;99.90;;;;;;7384522;19;20176;-77
2023/07/14 12:57:24;;;;;;;0.00;0.00;;;28.50;99.90;;;;;;7372251;19;20184;-76
2023/07/14 12:59:56;;;;;;;0.00;0.00;;;28.60;99.90;;;;;;7377218;19;20212;-76
2023/07/14 13:02:25;;;;;;;0.00;0.00;;;28.60;99.90;;;;;;7382927;19;20137;-76
2023/07/14 13:04:54;;;;;;;0.00;0.00;;;28.60;99.90;;;;;;7382345;19;20212;-76
2023/07/14 13:07:33;;;;;;;0.00;0.00;;;28.50;99.90;;;;;;7381888;19;20153;-76
2023/07/14 13:10:19;;;;;;;0.00;0.00;;;28.40;99.90;;;;;;7384200;19;20214;-75
2023/07/14 13:12:48;;;;;;;0.00;0.00;;;28.30;99.90;;;;;;7382795;19;20149;-75
2023/07/14 13:15:20;;;;;;;0.00;0.00;;;28.20;99.90;;;;;;7382671;19;20168;-75
2023/07/14 13:17:50;;;;;;;0.00;0.00;;;28.10;99.90;;;;;;7380723;19;20180;-77
2023/07/14 13:20:23;;;;;;;0.00;0.00;;;28.20;99.90;;;;;;7376086;19;20140;-76
2023/07/14 13:25:54;;;;;;;0.00;0.00;;;28.20;99.90;;;;;;7390233;19;20836;-73
2023/07/14 13:28:28;;;;;;;0.00;0.00;;;28.20;99.90;;;;;;7410753;19;20144;-74
2023/07/14 13:30:57;;;;;;;0.00;0.00;;;28.20;99.90;;;;;;7391843;19;20198;-74
2023/07/14 13:33:29;;;;;;;0.00;0.00;;;28.10;99.90;;;;;;7410379;19;20136;-72
2023/07/14 13:36:00;;;;;;;0.00;0.00;;;28.00;99.90;;;;;;7415335;19;20210;-73
2023/07/14 13:38:30;;;;;;;0.00;0.00;;;28.00;99.90;;;;;;7401925;19;20151;-71
2023/07/14 13:41:11;;;;;;;0.00;0.00;;;28.00;99.90;;;;;;7409597;19;20195;-70
2023/07/14 13:43:40;;;;;;;0.00;0.00;;;28.00;99.90;;;;;;7412352;19;20159;-70
2023/07/14 13:46:15;;;;;;;0.00;0.00;;;28.00;99.90;;;;;;7410058;19;20160;-69
2023/07/14 13:48:45;;;;;;;0.00;0.00;;;28.00;99.90;;;;;;7409332;19;20163;-70
2023/07/14 13:51:20;;;;;;;0.00;0.00;;;28.00;99.90;;;;;;7409860;19;20164;-71
2023/07/14 13:53:50;;;;;;;0.00;0.00;;;28.00;99.90;;;;;;7412955;19;20156;-71
2023/07/14 13:56:23;;;;;;;0.00;0.00;;;28.00;99.90;;;;;;7409564;19;20156;-71
2023/07/14 13:58:52;;;;;;;0.00;0.00;;;28.10;99.90;;;;;;7411335;19;20232;-69
2023/07/14 14:01:23;;;;;;;0.00;0.00;;;28.10;99.90;;;;;;7410926;19;20160;-71
2023/07/14 14:03:53;;;;;;;0.00;0.00;;;28.20;99.90;;;;;;7412721;19;20156;-70